createdAt,value
2022-08-01T00:00:52.982Z,2.10
2022-08-01T00:03:54.822Z,2.10
2022-08-01T00:06:56.525Z,1.92
2022-08-01T00:09:58.262Z,2.40
2022-08-01T00:12:59.993Z,2.30
2022-08-01T00:16:02.224Z,2.47
2022-08-01T00:19:04.103Z,2.33
2022-08-01T00:22:06.259Z,2.17
2022-08-01T00:25:08.593Z,2.03
2022-08-01T00:28:10.842Z,2.30
2022-08-01T00:31:12.754Z,2.33
2022-08-01T00:34:14.449Z,2.22
2022-08-01T00:37:16.487Z,2.30
2022-08-01T00:40:18.281Z,2.30
2022-08-01T00:43:20.022Z,2.10
2022-08-01T00:46:21.930Z,2.20
2022-08-01T00:49:23.733Z,2.35
2022-08-01T00:52:25.506Z,2.20
2022-08-01T00:55:28.423Z,2.08
2022-08-01T00:58:32.175Z,2.10
2022-08-01T01:01:39.245Z,1.95
2022-08-01T01:04:41.866Z,2.10
2022-08-01T01:08:09.390Z,2.08
2022-08-01T01:11:29.827Z,1.90
2022-08-01T01:14:47.631Z,2.20
2022-08-01T01:17:54.024Z,2.00
2022-08-01T01:21:17.466Z,2.10
2022-08-01T01:24:41.865Z,2.15
2022-08-01T01:27:55.537Z,1.98
2022-08-01T01:30:59.280Z,2.20
2022-08-01T01:34:03.880Z,2.00
2022-08-01T01:37:12.781Z,2.10
2022-08-01T01:40:16.342Z,1.88
2022-08-01T01:43:19.955Z,2.33
2022-08-01T01:46:28.107Z,2.20
2022-08-01T01:49:31.221Z,2.20
2022-08-01T01:52:33.651Z,2.05
2022-08-01T01:55:49.734Z,1.83
2022-08-01T01:58:56.507Z,2.25
2022-08-01T02:02:08.923Z,2.10
2022-08-01T02:05:13.263Z,1.80
2022-08-01T02:08:17.426Z,2.20
2022-08-01T02:11:20.597Z,2.00
2022-08-01T02:14:24.314Z,2.20
2022-08-01T02:17:27.643Z,2.30
2022-08-01T02:20:31.767Z,2.00
2022-08-01T02:23:37.574Z,2.58
2022-08-01T02:26:41.986Z,2.05
2022-08-01T02:30:06.364Z,2.17
2022-08-01T02:33:16.484Z,2.10
2022-08-01T02:36:31.612Z,2.10
2022-08-01T02:39:37.846Z,2.20
2022-08-01T02:42:42.773Z,1.98
2022-08-01T02:45:48.818Z,2.00
2022-08-01T02:51:55.770Z,2.25
2022-08-01T02:54:59.147Z,2.00
2022-08-01T02:58:03.009Z,2.05
2022-08-01T03:01:07.305Z,2.20
2022-08-01T03:04:10.221Z,2.10
2022-08-01T03:07:14.038Z,1.98
2022-08-01T03:10:18.003Z,2.05
2022-08-01T03:13:21.332Z,1.90
2022-08-01T03:16:25.261Z,2.03
2022-08-01T03:19:29.355Z,1.90
2022-08-01T03:22:33.443Z,2.10
2022-08-01T03:25:38.003Z,2.00
2022-08-01T03:28:41.368Z,2.00
2022-08-01T03:31:45.916Z,2.25
2022-08-01T03:34:47.824Z,1.90
2022-08-01T03:38:15.834Z,2.00
2022-08-01T03:41:19.653Z,2.08
2022-08-01T03:44:25.717Z,1.83
2022-08-01T03:47:32.560Z,2.00
2022-08-01T03:50:38.017Z,2.00
2022-08-01T03:53:42.468Z,2.05
2022-08-01T03:56:47.113Z,2.10
2022-08-01T03:59:50.326Z,2.10
2022-08-01T04:02:52.578Z,2.15
2022-08-01T04:05:54.301Z,1.90
2022-08-01T04:08:56.855Z,1.92
2022-08-01T04:12:02.324Z,1.80
2022-08-01T04:15:13.796Z,2.00
2022-08-01T04:18:15.574Z,1.90
2022-08-01T04:21:22.673Z,2.00
2022-08-01T04:24:26.543Z,1.90
2022-08-01T04:27:48.557Z,1.92
2022-08-01T04:31:01.381Z,1.90
2022-08-01T04:34:06.751Z,2.03
2022-08-01T04:37:13.292Z,1.80
2022-08-01T04:40:15.745Z,1.67
2022-08-01T04:43:17.721Z,1.85
2022-08-01T04:46:20.384Z,1.73
2022-08-01T04:49:23.166Z,1.83
2022-08-01T04:52:37.232Z,1.80
2022-08-01T04:55:39.014Z,1.88
2022-08-01T04:58:44.751Z,1.90
2022-08-01T05:01:49.931Z,1.80
2022-08-01T05:04:51.644Z,1.90
2022-08-01T05:07:53.336Z,1.80
2022-08-01T05:10:55.056Z,1.80
2022-08-01T05:13:56.710Z,2.10
2022-08-01T05:16:59.808Z,1.80
2022-08-01T05:20:01.660Z,2.00
2022-08-01T05:23:03.940Z,1.90
2022-08-01T05:26:05.919Z,1.83
2022-08-01T05:29:07.780Z,1.90
2022-08-01T05:32:10.297Z,2.10
2022-08-01T05:35:12.362Z,2.00
2022-08-01T05:38:14.933Z,1.92
2022-08-01T05:41:16.984Z,1.90
2022-08-01T05:44:18.742Z,1.90
2022-08-01T05:47:20.455Z,1.90
2022-08-01T05:50:22.210Z,1.92
2022-08-01T05:53:23.873Z,1.75
2022-08-01T05:56:28.359Z,1.90
2022-08-01T05:59:33.692Z,2.00
2022-08-01T06:02:35.419Z,1.92
2022-08-01T06:05:37.260Z,2.00
2022-08-01T06:08:38.989Z,1.75
2022-08-01T06:11:40.885Z,1.65
2022-08-01T06:14:42.571Z,1.88
2022-08-01T06:17:44.270Z,1.85
2022-08-01T06:20:46.162Z,1.80
2022-08-01T06:23:47.828Z,1.70
2022-08-01T06:26:49.764Z,1.63
2022-08-01T06:29:54.487Z,1.80
2022-08-01T06:32:59.464Z,1.75
2022-08-01T06:36:01.237Z,1.70
2022-08-01T06:39:04.664Z,1.45
2022-08-01T06:42:06.665Z,1.60
2022-08-01T06:45:10.524Z,1.70
2022-08-01T06:48:12.268Z,1.70
2022-08-01T06:51:19.103Z,1.42
2022-08-01T06:54:22.165Z,1.70
2022-08-01T06:57:24.001Z,1.63
2022-08-01T07:00:26.701Z,1.48
2022-08-01T07:03:53.954Z,1.70
2022-08-01T07:06:50.320Z,1.50
2022-08-01T07:09:51.917Z,1.60
2022-08-01T07:12:54.906Z,1.80
2022-08-01T07:15:56.501Z,1.75
2022-08-01T07:18:58.172Z,1.55
2022-08-01T07:21:59.839Z,1.58
2022-08-01T07:25:01.460Z,1.80
2022-08-01T07:28:03.146Z,1.48
2022-08-01T07:31:04.713Z,1.58
2022-08-01T07:34:07.835Z,1.60
2022-08-01T07:37:09.505Z,1.50
2022-08-01T07:40:11.628Z,1.63
2022-08-01T07:43:13.459Z,1.60
2022-08-01T07:46:15.102Z,1.90
2022-08-01T07:49:16.893Z,1.90
2022-08-01T07:52:19.085Z,1.98
2022-08-01T07:55:21.020Z,1.80
2022-08-01T07:58:22.806Z,1.77
2022-08-01T08:01:24.499Z,2.10
2022-08-01T08:04:27.238Z,1.85
2022-08-01T08:07:28.966Z,2.13
2022-08-01T08:10:30.598Z,2.10
2022-08-01T08:13:32.312Z,2.00
2022-08-01T08:16:33.960Z,1.85
2022-08-01T08:19:39.056Z,1.70
2022-08-01T08:22:41.158Z,2.10
2022-08-01T08:25:42.814Z,1.90
2022-08-01T08:28:44.684Z,2.17
2022-08-01T08:31:52.123Z,1.85
2022-08-01T08:34:56.357Z,1.90
2022-08-01T08:37:58.231Z,1.95
2022-08-01T08:41:00.669Z,1.88
2022-08-01T08:44:04.183Z,2.13
2022-08-01T08:47:06.954Z,2.08
2022-08-01T08:50:11.283Z,2.00
2022-08-01T08:53:19.044Z,1.92
2022-08-01T08:56:22.144Z,2.08
2022-08-01T08:59:27.305Z,2.20
2022-08-01T09:02:28.947Z,2.47
2022-08-01T09:05:38.571Z,2.38
2022-08-01T09:08:41.915Z,2.20
2022-08-01T09:11:43.910Z,2.42
2022-08-01T09:14:58.895Z,2.63
2022-08-01T09:18:00.816Z,2.33
2022-08-01T09:21:20.324Z,2.60
2022-08-01T09:24:28.454Z,2.45
2022-08-01T09:27:34.561Z,2.40
2022-08-01T09:30:40.316Z,2.35
2022-08-01T09:34:01.833Z,2.45
2022-08-01T09:37:04.412Z,2.50
2022-08-01T09:40:09.764Z,2.88
2022-08-01T09:43:12.809Z,2.40
2022-08-01T09:46:17.587Z,2.60
2022-08-01T09:49:49.816Z,2.22
2022-08-01T09:52:54.807Z,2.38
2022-08-01T09:56:10.481Z,2.63
2022-08-01T09:59:12.660Z,2.70
2022-08-01T10:02:27.173Z,2.67
2022-08-01T10:05:36.971Z,3.00
2022-08-01T10:08:49.306Z,2.75
2022-08-01T10:11:51.793Z,2.70
2022-08-01T10:14:56.232Z,2.35
2022-08-01T10:18:01.469Z,2.17
2022-08-01T10:21:08.633Z,2.30
2022-08-01T10:24:13.497Z,2.30
2022-08-01T10:27:21.648Z,2.70
2022-08-01T10:30:39.047Z,2.45
2022-08-01T10:33:50.509Z,2.58
2022-08-01T10:36:54.107Z,2.40
2022-08-01T10:40:27.337Z,2.50
2022-08-01T10:43:21.662Z,2.25
2022-08-01T10:46:24.265Z,2.45
2022-08-01T10:49:31.739Z,2.60
2022-08-01T10:52:39.189Z,2.40
2022-08-01T10:55:50.584Z,2.40
2022-08-01T10:59:02.065Z,2.45
2022-08-01T11:02:08.897Z,2.30
2022-08-01T11:05:24.268Z,2.20
2022-08-01T11:08:27.022Z,2.33
2022-08-01T11:11:29.060Z,2.28
2022-08-01T11:15:02.862Z,2.40
2022-08-01T11:18:29.695Z,2.47
2022-08-01T11:22:08.589Z,2.50
2022-08-01T11:25:11.931Z,2.67
2022-08-01T11:28:15.542Z,2.35
2022-08-01T11:31:17.394Z,2.45
2022-08-01T11:34:19.264Z,2.15
2022-08-01T11:37:30.804Z,2.22
2022-08-01T11:40:32.894Z,2.38
2022-08-01T11:43:35.278Z,2.13
2022-08-01T11:46:49.738Z,2.25
2022-08-01T11:49:56.385Z,2.33
2022-08-01T11:53:08.869Z,2.22
2022-08-01T11:56:13.835Z,2.40
2022-08-01T11:59:19.315Z,2.22
2022-08-01T12:02:30.377Z,2.10
2022-08-01T12:05:34.875Z,2.53
2022-08-01T12:08:37.680Z,2.28
2022-08-01T12:11:39.975Z,2.40
2022-08-01T12:14:41.822Z,2.53
2022-08-01T12:17:58.438Z,2.30
2022-08-01T12:21:05.852Z,2.50
2022-08-01T12:24:07.718Z,2.47
2022-08-01T12:27:24.235Z,2.17
2022-08-01T12:30:28.559Z,2.22
2022-08-01T12:33:30.351Z,2.38
2022-08-01T12:36:32.074Z,2.30
2022-08-01T12:39:34.850Z,2.38
2022-08-01T12:42:40.564Z,2.53
2022-08-01T12:45:54.595Z,2.20
2022-08-01T12:48:59.407Z,2.17
2022-08-01T12:52:01.656Z,2.40
2022-08-01T12:55:21.748Z,2.40
2022-08-01T12:58:23.522Z,2.40
2022-08-01T13:01:28.138Z,2.25
2022-08-01T13:04:30.023Z,2.03
2022-08-01T13:07:50.940Z,2.38
2022-08-01T13:11:05.907Z,2.38
2022-08-01T13:14:08.182Z,2.38
2022-08-01T13:17:09.867Z,2.45
2022-08-01T13:20:24.672Z,2.20
2022-08-01T13:24:03.621Z,2.38
2022-08-01T13:27:01.688Z,2.25
2022-08-01T13:30:20.416Z,2.40
2022-08-01T13:33:23.223Z,2.30
2022-08-01T13:36:28.329Z,2.13
2022-08-01T13:39:43.254Z,2.13
2022-08-01T13:42:44.928Z,2.30
2022-08-01T13:45:46.584Z,2.30
2022-08-01T13:48:48.457Z,2.17
2022-08-01T13:51:52.262Z,2.00
2022-08-01T13:54:53.922Z,2.00
2022-08-01T13:57:55.524Z,2.05
2022-08-01T14:00:57.242Z,2.15
2022-08-01T14:03:59.900Z,1.95
2022-08-01T14:07:05.547Z,1.92
2022-08-01T14:10:18.780Z,2.20
2022-08-01T14:13:23.879Z,1.90
2022-08-01T14:16:25.709Z,2.20
2022-08-01T14:19:38.928Z,2.00
2022-08-01T14:22:41.618Z,1.70
2022-08-01T14:26:00.825Z,1.90
2022-08-01T14:29:05.047Z,1.60
2022-08-01T14:32:07.224Z,1.50
2022-08-01T14:35:09.437Z,1.67
2022-08-01T14:38:11.108Z,1.70
2022-08-01T14:41:12.956Z,1.60
2022-08-01T14:44:14.665Z,1.73
2022-08-01T14:47:21.887Z,1.65
2022-08-01T14:50:25.122Z,1.60
2022-08-01T14:53:26.775Z,1.50
2022-08-01T14:56:28.428Z,1.42
2022-08-01T14:59:30.045Z,1.40
2022-08-01T15:02:31.729Z,1.80
2022-08-01T15:05:33.929Z,1.50
2022-08-01T15:08:35.911Z,1.60
2022-08-01T15:11:38.227Z,1.73
2022-08-01T15:14:49.415Z,1.85
2022-08-01T15:17:52.720Z,1.60
2022-08-01T15:20:54.492Z,1.65
2022-08-01T15:23:56.504Z,1.80
2022-08-01T15:26:58.583Z,1.70
2022-08-01T15:30:00.432Z,1.75
2022-08-01T15:33:02.089Z,1.70
2022-08-01T15:36:03.940Z,1.67
2022-08-01T15:39:05.590Z,1.77
2022-08-01T15:42:12.923Z,1.80
2022-08-01T15:45:47.340Z,1.67
2022-08-01T15:48:44.364Z,1.63
2022-08-01T15:51:46.471Z,1.65
2022-08-01T15:54:48.196Z,1.88
2022-08-01T15:57:49.873Z,1.83
2022-08-01T16:00:51.512Z,1.80
2022-08-01T16:03:54.469Z,1.60
2022-08-01T16:06:56.419Z,1.70
2022-08-01T16:09:58.232Z,1.40
2022-08-01T16:13:00.306Z,1.50
2022-08-01T16:16:09.291Z,1.48
2022-08-01T16:19:10.959Z,1.40
2022-08-01T16:22:21.397Z,1.50
2022-08-01T16:25:23.198Z,1.38
2022-08-01T16:28:24.984Z,1.42
2022-08-01T16:31:40.265Z,1.52
2022-08-01T16:34:48.713Z,1.50
2022-08-01T16:37:50.382Z,1.50
2022-08-01T16:40:53.791Z,1.38
2022-08-01T16:43:58.331Z,1.45
2022-08-01T16:47:00.024Z,1.30
2022-08-01T16:50:01.812Z,1.30
2022-08-01T16:53:03.704Z,1.20
2022-08-01T16:56:05.511Z,1.40
2022-08-01T16:59:07.308Z,1.30
2022-08-01T17:02:11.075Z,1.20
2022-08-01T17:05:13.515Z,1.40
2022-08-01T17:08:15.217Z,1.20
2022-08-01T17:11:17.332Z,1.25
2022-08-01T17:14:19.357Z,1.40
2022-08-01T17:17:21.686Z,1.40
2022-08-01T17:20:23.812Z,1.30
2022-08-01T17:23:25.535Z,1.67
2022-08-01T17:26:27.251Z,1.58
2022-08-01T17:29:28.937Z,1.80
2022-08-01T17:32:45.551Z,1.95
2022-08-01T17:35:47.615Z,1.92
2022-08-01T17:38:49.582Z,1.45
2022-08-01T17:41:51.250Z,1.45
2022-08-01T17:44:54.147Z,1.50
2022-08-01T17:47:55.974Z,1.30
2022-08-01T17:50:57.946Z,1.60
2022-08-01T17:53:59.639Z,1.30
2022-08-01T17:57:01.785Z,1.30
2022-08-01T18:00:07.022Z,1.30
2022-08-01T18:03:09.393Z,1.40
2022-08-01T18:06:13.827Z,1.40
2022-08-01T18:09:15.972Z,1.40
2022-08-01T18:12:18.347Z,1.42
2022-08-01T18:15:24.549Z,1.38
2022-08-01T18:18:33.634Z,1.27
2022-08-01T18:21:39.693Z,1.50
2022-08-01T18:24:44.142Z,1.30
2022-08-01T18:28:22.540Z,1.60
2022-08-01T18:31:09.160Z,1.40
2022-08-01T18:34:10.785Z,1.40
2022-08-01T18:37:13.473Z,1.40
2022-08-01T18:40:22.941Z,1.40
2022-08-01T18:43:24.962Z,1.40
2022-08-01T18:46:26.720Z,1.13
2022-08-01T18:49:29.291Z,1.38
2022-08-01T18:52:32.069Z,1.50
2022-08-01T18:55:33.705Z,1.30
2022-08-01T18:58:35.359Z,1.50
2022-08-01T19:01:37.869Z,1.33
2022-08-01T19:04:39.747Z,1.25
2022-08-01T19:08:06.242Z,1.30
2022-08-01T19:11:03.151Z,1.27
2022-08-01T19:14:05.164Z,1.60
2022-08-01T19:17:07.256Z,1.70
2022-08-01T19:20:09.439Z,1.58
2022-08-01T19:23:34.180Z,1.50
2022-08-01T19:26:37.307Z,1.67
2022-08-01T19:29:40.233Z,1.58
2022-08-01T19:32:46.733Z,1.48
2022-08-01T19:35:52.047Z,1.42
2022-08-01T19:38:57.977Z,1.58
2022-08-01T19:42:00.022Z,1.67
2022-08-01T19:45:02.508Z,1.60
2022-08-01T19:48:06.478Z,1.50
2022-08-01T19:51:15.347Z,1.50
2022-08-01T19:54:20.623Z,1.40
2022-08-01T19:57:23.624Z,1.55
2022-08-01T20:00:28.296Z,1.45
2022-08-01T20:03:33.881Z,1.65
2022-08-01T20:06:35.722Z,1.50
2022-08-01T20:09:39.730Z,1.45
2022-08-01T20:12:42.640Z,1.30
2022-08-01T20:15:45.075Z,1.40
2022-08-01T20:18:47.147Z,1.63
2022-08-01T20:22:02.712Z,1.48
2022-08-01T20:25:06.730Z,1.50
2022-08-01T20:28:13.105Z,1.42
2022-08-01T20:31:19.415Z,1.40
2022-08-01T20:34:23.539Z,1.50
2022-08-01T20:38:04.100Z,1.30
2022-08-01T20:40:49.682Z,1.40
2022-08-01T20:43:56.381Z,1.40
2022-08-01T20:46:59.070Z,1.50
2022-08-01T20:50:52.295Z,1.40
2022-08-01T20:53:54.904Z,1.30
2022-08-01T20:57:03.677Z,1.27
2022-08-01T21:00:06.963Z,1.40
2022-08-01T21:03:17.355Z,1.50
2022-08-01T21:06:29.111Z,1.45
2022-08-01T21:09:36.825Z,1.42
2022-08-01T21:13:00.547Z,1.30
2022-08-01T21:16:23.069Z,1.30
2022-08-01T21:19:27.866Z,1.33
2022-08-01T21:22:36.146Z,1.40
2022-08-01T21:25:38.205Z,1.50
2022-08-01T21:28:41.639Z,1.50
2022-08-01T21:32:12.874Z,1.35
2022-08-01T21:35:16.272Z,1.50
2022-08-01T21:38:20.551Z,1.58
2022-08-01T21:42:03.238Z,1.40
2022-08-01T21:44:47.890Z,1.33
2022-08-01T21:47:50.531Z,1.30
2022-08-01T21:50:58.800Z,1.50
2022-08-01T21:54:42.136Z,1.42
2022-08-01T21:58:16.633Z,1.40
2022-08-01T22:01:30.036Z,1.40
2022-08-01T22:04:53.125Z,1.40
2022-08-01T22:08:00.416Z,1.42
2022-08-01T22:11:08.931Z,1.40
2022-08-01T22:14:15.047Z,1.52
2022-08-01T22:17:25.229Z,1.40
2022-08-01T22:20:28.666Z,1.40
2022-08-01T22:23:35.229Z,1.55
2022-08-01T22:26:38.401Z,1.27
2022-08-01T22:29:40.241Z,1.33
2022-08-01T22:32:43.615Z,1.35
2022-08-01T22:35:47.357Z,1.30
2022-08-01T22:38:49.207Z,1.40
2022-08-01T22:42:01.356Z,1.50
2022-08-01T22:45:09.495Z,1.40
2022-08-01T22:48:25.746Z,1.60
2022-08-01T22:51:54.516Z,1.42
2022-08-01T22:55:09.645Z,1.42
2022-08-01T22:58:14.668Z,1.55
2022-08-01T23:01:21.837Z,1.43
2022-08-01T23:04:37.753Z,1.42
2022-08-01T23:07:52.549Z,1.35
2022-08-01T23:10:55.429Z,1.50
2022-08-01T23:14:00.429Z,1.52
2022-08-01T23:17:26.556Z,1.48
2022-08-01T23:20:27.528Z,1.55
2022-08-01T23:23:31.851Z,1.38
2022-08-01T23:26:34.013Z,1.50
2022-08-01T23:29:35.837Z,1.60
2022-08-01T23:32:37.828Z,1.50
2022-08-01T23:35:39.737Z,1.60
2022-08-01T23:38:41.538Z,1.60
2022-08-01T23:41:57.888Z,1.50
2022-08-01T23:45:05.509Z,1.58
2022-08-01T23:48:07.187Z,1.48
2022-08-01T23:51:09.434Z,1.48
2022-08-01T23:54:13.114Z,1.60
2022-08-01T23:57:15.593Z,1.50
